Time;durP1;ratioP1;P1;durP2;ratioP2;P2;SDS_P1;SDS_P2;PMS_P1;PMS_P2;Temp;Humidity;BMP_temperature;BMP_pressure;BME280_temperature;BME280_humidity;BME280_pressure;Samples;Min_cycle;Max_cycle;Signal;HPM_P1;HPM_P2
2020/12/06 00:05:16;;;;;;;29.50;18.17;;;3.80;99.90;;;;;;5001006;28;20744;-84
2020/12/06 00:07:43;;;;;;;38.17;20.80;;;3.70;99.90;;;;;;5002129;28;20517;-84
2020/12/06 00:10:17;;;;;;;31.60;19.87;;;3.70;99.90;;;;;;4958765;28;20468;-86
2020/12/06 00:12:48;;;;;;;25.80;16.60;;;3.80;99.90;;;;;;4982249;28;20671;-84
2020/12/06 00:15:14;;;;;;;36.13;21.50;;;3.80;99.90;;;;;;4959826;28;20448;-85
2020/12/06 00:17:40;;;;;;;37.47;20.40;;;3.80;99.90;;;;;;4976194;28;20433;-84
2020/12/06 00:20:14;;;;;;;45.77;22.03;;;3.80;99.90;;;;;;4979508;28;20192;-83
2020/12/06 00:22:40;;;;;;;39.80;22.10;;;3.80;99.90;;;;;;5001965;28;20890;-83
2020/12/06 00:25:06;;;;;;;33.17;20.17;;;3.80;99.90;;;;;;4966607;28;20449;-84
2020/12/06 00:27:33;;;;;;;42.17;21.60;;;3.80;99.90;;;;;;4984708;28;20477;-83
2020/12/06 00:30:24;;;;;;;33.93;19.90;;;3.80;99.90;;;;;;5001855;28;20436;-83
2020/12/06 00:32:56;;;;;;;32.67;19.60;;;3.80;99.90;;;;;;4980611;28;20540;-84
2020/12/06 00:35:52;;;;;;;;;;;;;;;;;;;;;
2020/12/06 00:39:38;;;;;;;;;;;;;;;;;;;;;
2020/12/06 00:58:37;;;;;;;35.13;20.17;;;4.20;99.90;;;;;;4955144;28;20445;-83
2020/12/06 01:01:03;;;;;;;34.47;19.60;;;4.20;99.90;;;;;;4932597;28;20442;-84
2020/12/06 01:03:28;;;;;;;37.07;19.17;;;4.20;99.90;;;;;;4940916;28;20207;-84
2020/12/06 01:05:55;;;;;;;30.33;17.87;;;4.20;99.90;;;;;;4985481;28;20198;-82
2020/12/06 01:08:21;;;;;;;27.70;19.23;;;4.20;99.90;;;;;;4990839;28;20593;-85
2020/12/06 01:10:47;;;;;;;32.50;18.33;;;4.20;99.90;;;;;;4989930;28;20995;-83
2020/12/06 01:13:13;;;;;;;36.70;20.50;;;4.30;99.90;;;;;;5002210;28;20229;-84
2020/12/06 01:15:39;;;;;;;32.80;20.43;;;4.20;99.90;;;;;;4992321;28;20466;-85
2020/12/06 01:18:05;;;;;;;37.70;21.63;;;4.20;99.90;;;;;;4968065;28;21063;-83
2020/12/06 01:20:31;;;;;;;40.00;21.37;;;4.20;99.90;;;;;;4996128;28;20675;-85
2020/12/06 01:22:59;;;;;;;39.77;20.80;;;4.20;99.90;;;;;;4996330;28;20213;-85
2020/12/06 01:25:28;;;;;;;36.47;20.67;;;4.20;99.90;;;;;;4992575;28;20661;-83
2020/12/06 01:27:54;;;;;;;41.43;23.17;;;4.20;99.90;;;;;;4976741;28;20460;-83
2020/12/06 01:30:20;;;;;;;51.73;24.83;;;4.20;99.90;;;;;;4984324;28;20445;-83
2020/12/06 01:32:46;;;;;;;41.97;22.20;;;4.30;99.90;;;;;;4997672;28;20233;-83
2020/12/06 01:35:12;;;;;;;41.03;20.90;;;4.30;99.90;;;;;;4973813;28;20449;-83
2020/12/06 01:37:38;;;;;;;45.47;22.87;;;4.30;99.90;;;;;;4993527;28;20197;-83
2020/12/06 01:40:04;;;;;;;35.73;19.13;;;4.30;99.90;;;;;;4985903;28;20441;-84
2020/12/06 01:42:32;;;;;;;53.87;22.80;;;4.30;99.90;;;;;;4996522;28;20632;-84
2020/12/06 01:45:02;;;;;;;43.83;22.53;;;4.30;99.90;;;;;;4994784;28;20473;-84
2020/12/06 01:47:29;;;;;;;38.17;20.20;;;4.20;99.90;;;;;;4991964;28;20480;-84
2020/12/06 01:49:58;;;;;;;39.30;20.03;;;4.30;99.90;;;;;;4992869;28;20507;-84
2020/12/06 01:52:29;;;;;;;45.63;20.70;;;4.30;99.90;;;;;;4991775;28;20579;-84
2020/12/06 01:54:55;;;;;;;35.93;18.70;;;4.30;99.90;;;;;;4992553;28;20425;-83
2020/12/06 01:57:22;;;;;;;39.93;21.30;;;4.20;99.90;;;;;;4993385;28;20480;-83
2020/12/06 02:00:01;;;;;;;33.93;20.70;;;4.20;99.90;;;;;;4997031;28;20449;-83
2020/12/06 02:03:18;;;;;;;47.63;21.37;;;4.30;99.90;;;;;;4981789;28;20233;-83
2020/12/06 02:05:44;;;;;;;44.37;21.00;;;4.30;99.90;;;;;;4992525;28;20443;-83
2020/12/06 02:08:12;;;;;;;30.57;18.20;;;4.30;99.90;;;;;;4980050;28;20453;-83
2020/12/06 02:10:38;;;;;;;34.57;18.90;;;4.20;99.90;;;;;;4993945;28;20437;-82
2020/12/06 02:13:07;;;;;;;39.83;20.33;;;4.20;99.90;;;;;;4991860;28;20515;-83
2020/12/06 02:15:36;;;;;;;43.20;21.00;;;4.20;99.90;;;;;;4994862;28;20433;-83
2020/12/06 02:18:11;;;;;;;36.33;18.87;;;4.20;99.90;;;;;;4995328;28;20478;-83
2020/12/06 02:20:37;;;;;;;36.07;19.10;;;4.20;99.90;;;;;;4992939;28;20434;-83
2020/12/06 02:23:06;;;;;;;42.83;18.97;;;4.20;99.90;;;;;;5000646;28;20536;-83
2020/12/06 02:25:40;;;;;;;30.80;17.10;;;4.20;99.90;;;;;;4990365;28;20453;-83
2020/12/06 02:28:06;;;;;;;37.10;18.53;;;4.20;99.90;;;;;;4998790;28;20472;-83
2020/12/06 02:30:33;;;;;;;31.27;18.17;;;4.30;99.90;;;;;;4997321;28;20447;-83
2020/12/06 02:33:05;;;;;;;32.40;18.27;;;4.30;99.90;;;;;;4995200;28;20547;-83
2020/12/06 02:35:30;;;;;;;33.37;19.00;;;4.30;99.90;;;;;;5012396;28;20508;-84
2020/12/06 02:37:56;;;;;;;37.23;18.97;;;4.30;99.90;;;;;;4979891;28;20460;-83
2020/12/06 02:40:22;;;;;;;38.27;19.53;;;4.30;99.90;;;;;;4996837;28;20194;-83
2020/12/06 02:42:49;;;;;;;34.13;18.77;;;4.30;99.90;;;;;;5012661;28;20824;-83
2020/12/06 02:45:14;;;;;;;38.23;19.17;;;4.30;99.90;;;;;;4991513;28;20209;-83
2020/12/06 02:47:41;;;;;;;35.47;19.00;;;4.30;99.90;;;;;;4994435;28;20524;-84
2020/12/06 02:50:09;;;;;;;35.23;17.17;;;4.30;99.90;;;;;;4960252;28;20480;-84
2020/12/06 02:52:35;;;;;;;37.47;19.27;;;4.40;99.90;;;;;;4990065;28;20210;-84
2020/12/06 02:55:01;;;;;;;37.60;19.10;;;4.30;99.90;;;;;;5000027;28;20433;-85
2020/12/06 02:57:33;;;;;;;36.60;18.30;;;4.30;99.90;;;;;;4982655;28;20509;-84
2020/12/06 03:00:02;;;;;;;32.47;18.17;;;4.30;99.90;;;;;;4974485;28;20444;-84
2020/12/06 03:02:29;;;;;;;32.70;16.90;;;4.30;99.90;;;;;;4995780;28;21014;-84
2020/12/06 03:04:55;;;;;;;41.30;19.37;;;4.30;99.90;;;;;;4997057;28;20433;-83
2020/12/06 03:07:22;;;;;;;37.90;20.17;;;4.30;99.90;;;;;;4992476;28;20440;-83
2020/12/06 03:09:48;;;;;;;34.73;17.60;;;4.30;99.90;;;;;;4997692;28;20490;-83
2020/12/06 03:12:13;;;;;;;42.97;17.97;;;4.30;99.90;;;;;;4992717;28;20563;-83
2020/12/06 03:14:39;;;;;;;37.87;18.77;;;4.30;99.90;;;;;;4971960;28;20225;-83
2020/12/06 03:17:05;;;;;;;39.60;19.73;;;4.30;99.90;;;;;;4988350;28;20560;-83
2020/12/06 03:19:31;;;;;;;35.50;19.43;;;4.40;99.90;;;;;;4989501;28;20441;-83
2020/12/06 03:21:57;;;;;;;38.80;17.53;;;4.40;99.90;;;;;;4981144;28;20499;-83
2020/12/06 03:24:24;;;;;;;37.80;18.40;;;4.50;99.90;;;;;;4990608;28;20453;-83
2020/12/06 03:26:50;;;;;;;36.27;20.30;;;4.40;99.90;;;;;;4989498;28;20538;-83
2020/12/06 03:29:22;;;;;;;34.33;17.47;;;4.40;99.90;;;;;;4995286;28;20476;-84
2020/12/06 03:32:01;;;;;;;34.53;18.27;;;4.40;99.90;;;;;;5001226;28;20532;-82
2020/12/06 03:34:27;;;;;;;39.33;18.20;;;4.40;99.90;;;;;;4988633;28;20464;-82
2020/12/06 03:36:53;;;;;;;38.17;19.63;;;4.40;99.90;;;;;;5000730;28;20451;-82
2020/12/06 03:39:22;;;;;;;37.57;18.20;;;4.40;99.90;;;;;;4997971;28;20445;-81
2020/12/06 03:42:36;;;;;;;38.60;19.60;;;4.40;99.90;;;;;;4999386;28;20437;-82
2020/12/06 03:45:22;;;;;;;42.13;19.80;;;4.30;99.90;;;;;;5001974;28;20444;-83
2020/12/06 03:47:54;;;;;;;41.37;20.80;;;4.40;99.90;;;;;;4991928;28;20501;-83
2020/12/06 03:50:23;;;;;;;40.83;18.60;;;4.40;99.90;;;;;;4994594;28;20429;-84
2020/12/06 03:52:49;;;;;;;43.37;20.50;;;4.40;99.90;;;;;;4997871;28;20596;-84
2020/12/06 03:55:17;;;;;;;41.83;18.40;;;4.40;99.90;;;;;;4988426;28;20496;-83
2020/12/06 03:57:46;;;;;;;40.43;19.57;;;4.20;99.90;;;;;;4981457;28;20193;-83
2020/12/06 04:00:20;;;;;;;39.13;19.33;;;4.20;99.90;;;;;;4994944;28;20435;-83
2020/12/06 04:02:49;;;;;;;38.90;20.63;;;4.30;99.90;;;;;;4992400;28;20460;-83
2020/12/06 04:05:20;;;;;;;41.53;19.67;;;4.20;99.90;;;;;;4994686;28;20492;-83
2020/12/06 04:07:47;;;;;;;42.33;20.10;;;4.20;99.90;;;;;;4978574;28;20465;-83
2020/12/06 04:10:13;;;;;;;44.47;19.87;;;4.20;99.90;;;;;;4993849;28;20438;-83
2020/12/06 04:12:39;;;;;;;37.10;19.13;;;4.20;99.90;;;;;;4961869;28;20479;-83
2020/12/06 04:15:05;;;;;;;49.73;19.10;;;4.20;99.90;;;;;;4991801;28;20440;-83
2020/12/06 04:17:31;;;;;;;41.17;19.47;;;4.30;99.90;;;;;;5005228;28;20511;-84
2020/12/06 04:19:59;;;;;;;51.37;22.10;;;4.30;99.90;;;;;;4977622;28;20792;-83
2020/12/06 04:22:26;;;;;;;44.20;19.97;;;4.30;99.90;;;;;;4994410;28;20503;-83
2020/12/06 04:24:52;;;;;;;42.00;20.07;;;4.40;99.90;;;;;;4997311;28;20782;-84
2020/12/06 04:27:18;;;;;;;40.57;18.87;;;4.40;99.90;;;;;;4961973;28;20450;-84
2020/12/06 04:29:43;;;;;;;49.17;19.60;;;4.40;99.90;;;;;;4995340;28;20229;-84
2020/12/06 04:32:09;;;;;;;46.10;20.63;;;4.50;99.90;;;;;;4987902;28;20289;-83
2020/12/06 04:34:36;;;;;;;37.77;17.57;;;4.50;99.90;;;;;;4975963;28;20457;-84
2020/12/06 04:37:05;;;;;;;43.73;18.57;;;4.50;99.90;;;;;;4998923;28;20210;-84
2020/12/06 04:39:32;;;;;;;34.67;19.50;;;4.50;99.90;;;;;;4998052;28;20421;-84
2020/12/06 04:42:00;;;;;;;42.53;19.47;;;4.40;99.90;;;;;;4990939;28;20939;-83
2020/12/06 04:44:27;;;;;;;50.40;21.60;;;4.40;99.90;;;;;;4997797;28;20480;-83
2020/12/06 04:46:59;;;;;;;39.10;18.77;;;4.40;99.90;;;;;;4995398;28;20453;-83
2020/12/06 04:49:43;;;;;;;44.43;19.40;;;4.50;99.90;;;;;;5003786;28;20441;-83
2020/12/06 04:52:20;;;;;;;44.17;20.87;;;4.40;99.90;;;;;;4997370;28;20476;-84
2020/12/06 04:55:02;;;;;;;53.77;19.90;;;4.50;99.90;;;;;;5000109;28;20511;-83
2020/12/06 04:57:32;;;;;;;47.50;21.37;;;4.50;99.90;;;;;;5001580;28;20434;-83
2020/12/06 05:00:13;;;;;;;43.07;20.30;;;4.50;99.90;;;;;;4995085;28;20459;-83
2020/12/06 05:02:41;;;;;;;41.67;19.53;;;4.50;99.90;;;;;;4994013;28;20815;-83
2020/12/06 05:05:08;;;;;;;35.63;18.83;;;4.50;99.90;;;;;;5001741;28;20464;-82
2020/12/06 05:07:34;;;;;;;39.77;18.20;;;4.50;99.90;;;;;;5003671;28;20429;-83
2020/12/06 05:10:02;;;;;;;39.13;18.10;;;4.50;99.90;;;;;;5004441;28;20434;-82
2020/12/06 05:12:27;;;;;;;46.10;19.20;;;4.60;99.90;;;;;;5000775;28;20465;-83
2020/12/06 05:14:53;;;;;;;36.30;17.97;;;4.60;99.90;;;;;;5011513;28;20444;-82
2020/12/06 05:17:19;;;;;;;36.67;17.10;;;4.60;99.90;;;;;;4998372;28;20494;-84
2020/12/06 05:19:47;;;;;;;39.70;17.43;;;4.60;99.90;;;;;;4991910;28;20190;-85
2020/12/06 05:22:15;;;;;;;38.07;19.00;;;4.60;99.90;;;;;;4994259;28;20439;-85
2020/12/06 05:24:44;;;;;;;39.23;16.40;;;4.60;99.90;;;;;;4995734;28;20859;-83
2020/12/06 05:27:10;;;;;;;40.73;17.87;;;4.60;99.90;;;;;;4995658;28;20444;-83
2020/12/06 05:29:44;;;;;;;42.53;16.93;;;4.60;99.90;;;;;;4978278;28;20430;-83
2020/12/06 05:32:12;;;;;;;41.60;19.00;;;4.60;99.90;;;;;;4994467;28;20479;-84
2020/12/06 05:34:44;;;;;;;39.47;17.70;;;4.60;99.90;;;;;;4978477;28;20442;-84
2020/12/06 05:37:10;;;;;;;37.70;18.57;;;4.60;99.90;;;;;;4977217;28;20449;-84
2020/12/06 05:39:37;;;;;;;41.63;19.03;;;4.60;99.90;;;;;;4995950;28;20486;-84
2020/12/06 05:42:07;;;;;;;37.33;18.30;;;4.60;99.90;;;;;;4963015;28;20233;-85
2020/12/06 05:44:36;;;;;;;37.87;16.93;;;4.70;99.90;;;;;;4993520;28;20796;-85
2020/12/06 05:47:13;;;;;;;48.70;18.33;;;4.80;99.90;;;;;;4998283;28;20444;-84
2020/12/06 05:49:44;;;;;;;38.57;17.60;;;4.80;99.90;;;;;;4995319;28;20444;-85
2020/12/06 05:52:18;;;;;;;37.10;16.07;;;4.80;99.90;;;;;;4994868;28;20543;-85
2020/12/06 05:54:47;;;;;;;37.10;16.30;;;4.80;99.90;;;;;;4996318;28;21118;-85
2020/12/06 05:57:21;;;;;;;35.80;16.40;;;4.80;99.90;;;;;;4994734;28;20510;-85
2020/12/06 05:59:47;;;;;;;32.83;16.17;;;4.80;99.90;;;;;;4975320;28;20429;-83
2020/12/06 06:02:15;;;;;;;36.80;16.83;;;4.70;99.90;;;;;;4987538;28;20437;-84
2020/12/06 06:04:42;;;;;;;35.67;15.30;;;4.70;99.90;;;;;;4997052;28;20196;-83
2020/12/06 06:08:38;;;;;;;;;;;;;;;;;;;;;
2020/12/06 06:22:08;;;;;;;43.10;17.77;;;4.60;99.90;;;;;;4807149;29;20427;-84
2020/12/06 06:32:19;;;;;;;;;;;;;;;;;;;;;
2020/12/06 06:34:48;;;;;;;38.73;16.27;;;4.70;99.90;;;;;;4823366;29;20602;-84
2020/12/06 06:38:42;;;;;;;;;;;;;;;;;;;;;
2020/12/06 06:41:27;;;;;;;33.03;16.13;;;4.80;99.90;;;;;;4888368;29;20534;-84
2020/12/06 06:44:07;;;;;;;36.43;16.20;;;4.80;99.90;;;;;;4967084;28;20475;-85
2020/12/06 06:46:34;;;;;;;37.93;17.90;;;4.80;99.90;;;;;;4978599;28;20517;-85
2020/12/06 06:50:15;;;;;;;36.27;17.30;;;4.80;99.90;;;;;;4977132;28;20504;-84
2020/12/06 06:53:04;;;;;;;34.57;16.13;;;4.90;99.90;;;;;;4896013;29;20567;-84
2020/12/06 06:56:02;;;;;;;36.73;17.07;;;4.90;99.90;;;;;;4890570;29;20460;-84
2020/12/06 06:58:51;;;;;;;33.33;15.30;;;4.80;99.90;;;;;;4956675;28;20441;-84
2020/12/06 07:02:01;;;;;;;;;;;;;;;;;;;;;
2020/12/06 07:08:16;;;;;;;36.73;16.70;;;4.80;99.90;;;;;;4975765;28;20587;-83
2020/12/06 07:10:42;;;;;;;24.00;13.20;;;4.80;99.90;;;;;;4962174;28;20464;-84
2020/12/06 07:13:08;;;;;;;34.17;15.77;;;4.70;99.90;;;;;;4962874;28;20469;-85
2020/12/06 07:15:35;;;;;;;28.13;12.40;;;4.80;99.90;;;;;;4980137;28;20500;-84
2020/12/06 07:21:41;;;;;;;36.20;15.83;;;4.80;99.90;;;;;;4988361;28;20550;-83
2020/12/06 07:24:29;;;;;;;29.40;14.40;;;4.80;99.90;;;;;;4965867;28;20449;-84
2020/12/06 07:30:21;;;;;;;37.80;15.07;;;4.90;99.90;;;;;;5002181;28;20416;-83
2020/12/06 07:33:18;;;;;;;34.63;15.37;;;4.90;99.90;;;;;;5003945;28;20566;-83
2020/12/06 07:35:43;;;;;;;31.93;15.13;;;4.90;99.90;;;;;;5000338;28;20522;-84
2020/12/06 07:38:09;;;;;;;36.97;14.50;;;4.80;99.90;;;;;;4998949;28;20981;-84
2020/12/06 07:41:08;;;;;;;39.03;16.60;;;4.80;99.90;;;;;;4995924;28;20181;-84
2020/12/06 07:43:34;;;;;;;33.33;15.10;;;4.80;99.90;;;;;;4998788;28;20558;-84
2020/12/06 07:46:24;;;;;;;36.57;15.40;;;4.80;99.90;;;;;;4996273;28;20931;-85
2020/12/06 07:49:00;;;;;;;32.07;15.67;;;4.70;99.90;;;;;;5006427;28;20436;-84
2020/12/06 07:51:31;;;;;;;36.90;16.90;;;4.70;99.90;;;;;;4985582;28;20833;-83
2020/12/06 07:54:01;;;;;;;34.43;15.20;;;4.60;99.90;;;;;;4970783;28;20467;-84
2020/12/06 07:57:01;;;;;;;32.50;13.83;;;4.60;99.90;;;;;;4965178;28;20441;-84
2020/12/06 08:06:11;;;;;;;28.10;13.00;;;4.60;99.90;;;;;;4999482;28;20504;-83
2020/12/06 08:08:45;;;;;;;23.30;11.50;;;4.60;99.90;;;;;;4969323;28;20951;-85
2020/12/06 08:11:52;;;;;;;24.77;12.30;;;4.60;99.90;;;;;;4998368;28;20459;-83
2020/12/06 08:14:57;;;;;;;;;;;;;;;;;;;;;
2020/12/06 08:22:06;;;;;;;29.80;14.03;;;4.70;99.90;;;;;;4888175;29;20855;-83
2020/12/06 08:25:04;;;;;;;28.83;13.87;;;4.80;99.90;;;;;;4896693;28;20446;-84
2020/12/06 08:28:02;;;;;;;;;;;;;;;;;;;;;
2020/12/06 08:34:43;;;;;;;;;;;;;;;;;;;;;
2020/12/06 08:38:04;;;;;;;20.47;10.80;;;5.00;99.90;;;;;;4829671;29;20448;-83
2020/12/06 08:44:04;;;;;;;27.57;11.80;;;5.20;99.90;;;;;;4992255;22;20487;-85
2020/12/06 08:46:31;;;;;;;25.17;11.43;;;5.30;99.90;;;;;;5017589;28;20807;-83
2020/12/06 08:49:00;;;;;;;28.67;13.90;;;5.30;99.90;;;;;;5035208;28;20431;-85
2020/12/06 08:51:39;;;;;;;21.63;11.60;;;5.40;99.90;;;;;;5034820;28;20459;-85
2020/12/06 08:54:40;;;;;;;20.60;10.83;;;5.40;99.90;;;;;;4993315;28;20454;-84
2020/12/06 08:57:19;;;;;;;20.47;10.87;;;5.30;99.90;;;;;;4991175;28;20508;-83
2020/12/06 09:00:16;;;;;;;20.50;10.87;;;5.30;99.90;;;;;;4978485;28;20478;-84
2020/12/06 09:03:04;;;;;;;;;;;;;;;;;;;;;
2020/12/06 09:05:30;;;;;;;25.40;11.80;;;5.40;99.90;;;;;;4983468;28;20521;-83
2020/12/06 09:07:56;;;;;;;22.33;12.20;;;5.40;99.90;;;;;;4989481;28;20511;-85
2020/12/06 09:10:29;;;;;;;23.53;10.90;;;5.30;99.90;;;;;;4977667;28;20266;-84
2020/12/06 09:12:55;;;;;;;22.87;11.20;;;5.30;99.90;;;;;;4973923;28;20602;-84
2020/12/06 09:16:17;;;;;;;17.63;12.23;;;5.20;99.90;;;;;;4981629;28;20202;-84
2020/12/06 09:19:03;;;;;;;23.00;10.77;;;5.20;99.90;;;;;;4991563;28;20461;-85
2020/12/06 09:22:42;;;;;;;21.63;12.40;;;5.20;99.90;;;;;;4990950;28;20503;-84
2020/12/06 09:25:48;;;;;;;18.00;11.00;;;5.20;99.90;;;;;;4941779;28;20533;-84
2020/12/06 09:28:30;;;;;;;19.60;10.70;;;5.20;99.90;;;;;;4926367;29;20443;-85
2020/12/06 09:30:56;;;;;;;17.73;10.33;;;5.20;99.90;;;;;;4973705;28;20536;-85
2020/12/06 09:33:49;;;;;;;15.67;9.77;;;5.30;99.90;;;;;;4984415;28;20570;-84
2020/12/06 09:36:15;;;;;;;20.17;10.30;;;5.30;99.90;;;;;;4983450;28;20181;-85
2020/12/06 09:42:06;;;;;;;22.60;12.17;;;5.40;99.90;;;;;;4999043;28;20497;-84
2020/12/06 09:44:32;;;;;;;20.43;11.03;;;5.30;99.90;;;;;;4990281;28;20478;-84
2020/12/06 09:46:59;;;;;;;22.37;10.93;;;5.20;99.90;;;;;;4986662;28;20463;-84
2020/12/06 09:49:26;;;;;;;22.07;10.37;;;5.30;99.90;;;;;;4997953;28;20454;-84
2020/12/06 09:59:57;;;;;;;;;;;;;;;;;;;;;
2020/12/06 10:02:26;;;;;;;19.57;10.90;;;5.50;99.90;;;;;;5033496;28;20550;-82
2020/12/06 10:05:32;;;;;;;17.17;9.97;;;5.50;99.90;;;;;;5010142;28;20437;-81
2020/12/06 10:08:01;;;;;;;21.20;11.77;;;5.50;99.90;;;;;;5031723;28;20505;-83
2020/12/06 10:10:57;;;;;;;18.00;11.20;;;5.50;99.90;;;;;;5035001;28;20456;-82
2020/12/06 10:13:55;;;;;;;19.57;11.50;;;5.50;99.90;;;;;;5008275;28;20569;-83
2020/12/06 10:16:25;;;;;;;17.23;11.00;;;5.50;99.90;;;;;;5032656;28;20459;-84
2020/12/06 10:19:16;;;;;;;19.83;10.33;;;5.60;99.90;;;;;;5033711;28;20898;-83
2020/12/06 10:21:42;;;;;;;19.47;11.03;;;5.50;99.90;;;;;;4999131;28;20443;-83
2020/12/06 10:25:00;;;;;;;19.93;9.20;;;5.50;99.90;;;;;;5031191;28;20969;-83
2020/12/06 10:27:33;;;;;;;20.13;10.70;;;5.40;99.90;;;;;;5024785;28;20431;-86
2020/12/06 10:33:21;;;;;;;16.70;10.13;;;5.50;99.90;;;;;;5034468;28;20478;-84
2020/12/06 10:35:50;;;;;;;19.90;10.77;;;5.60;99.90;;;;;;5029619;28;20439;-81
2020/12/06 10:38:19;;;;;;;16.37;10.40;;;5.60;99.90;;;;;;5030427;28;20454;-82
2020/12/06 10:41:06;;;;;;;16.90;10.50;;;5.60;99.90;;;;;;5028771;28;20953;-83
2020/12/06 10:51:17;;;;;;;14.37;9.40;;;5.80;99.90;;;;;;4958550;28;21000;-83
2020/12/06 10:54:25;;;;;;;12.63;8.67;;;5.70;99.90;;;;;;4959415;28;20486;-85
2020/12/06 10:57:02;;;;;;;15.60;8.97;;;5.50;99.90;;;;;;4955311;28;20962;-84
2020/12/06 10:59:31;;;;;;;15.63;11.20;;;5.50;99.90;;;;;;4978010;28;20433;-84
2020/12/06 11:02:00;;;;;;;14.90;9.73;;;5.60;99.90;;;;;;5031823;28;20446;-83
2020/12/06 11:04:30;;;;;;;16.87;10.27;;;5.80;99.90;;;;;;5010538;28;20486;-84
2020/12/06 11:06:58;;;;;;;15.97;9.73;;;5.80;99.90;;;;;;5035740;28;20527;-84
2020/12/06 11:12:53;;;;;;;15.23;9.63;;;5.80;99.90;;;;;;5028412;28;20485;-85
2020/12/06 11:15:19;;;;;;;12.83;9.27;;;5.90;99.90;;;;;;5015335;28;20596;-86
2020/12/06 11:17:48;;;;;;;16.83;10.53;;;5.90;99.90;;;;;;5012507;28;20447;-86
2020/12/06 11:20:18;;;;;;;14.90;9.53;;;5.90;99.90;;;;;;5029792;28;20460;-85
2020/12/06 11:22:47;;;;;;;19.17;10.33;;;5.90;99.90;;;;;;5013331;28;20964;-84
2020/12/06 11:25:33;;;;;;;14.73;9.23;;;5.90;99.90;;;;;;5029017;28;20466;-85
2020/12/06 11:28:08;;;;;;;13.57;9.73;;;5.80;99.90;;;;;;5022441;28;20470;-86
2020/12/06 11:30:34;;;;;;;13.87;10.17;;;6.00;99.90;;;;;;5026859;28;20612;-84
2020/12/06 11:33:00;;;;;;;16.90;10.77;;;6.10;99.90;;;;;;5014419;28;20517;-85
2020/12/06 11:35:33;;;;;;;15.63;11.13;;;6.10;99.90;;;;;;5018159;28;20196;-86
2020/12/06 11:38:42;;;;;;;16.00;9.50;;;6.00;99.90;;;;;;5032059;28;20439;-85
2020/12/06 11:41:17;;;;;;;15.40;9.87;;;5.90;99.90;;;;;;5030556;28;20502;-86
2020/12/06 11:43:44;;;;;;;18.00;11.20;;;5.90;99.90;;;;;;5024741;28;20450;-85
2020/12/06 11:46:10;;;;;;;17.47;9.57;;;5.90;99.90;;;;;;5027894;28;20458;-85
2020/12/06 11:48:36;;;;;;;21.80;12.27;;;5.80;99.90;;;;;;5010235;28;20519;-84
2020/12/06 11:51:38;;;;;;;23.90;13.57;;;5.70;99.90;;;;;;5023941;28;20468;-84
2020/12/06 11:54:04;;;;;;;24.13;12.70;;;5.80;99.90;;;;;;5025762;28;20212;-84
2020/12/06 11:56:32;;;;;;;22.70;12.77;;;5.80;99.90;;;;;;5029323;28;20454;-85
2020/12/06 12:02:08;;;;;;;22.80;14.57;;;5.90;99.90;;;;;;5010481;28;20438;-85
2020/12/06 12:04:36;;;;;;;23.53;13.50;;;6.00;99.90;;;;;;5021305;28;20479;-86
2020/12/06 12:07:18;;;;;;;24.47;13.77;;;6.00;99.90;;;;;;5030974;28;20439;-84
2020/12/06 12:10:02;;;;;;;27.43;15.10;;;6.00;99.90;;;;;;5025488;28;20492;-85
2020/12/06 12:13:30;;;;;;;;;;;;;;;;;;;;;
2020/12/06 12:17:05;;;;;;;21.57;13.10;;;5.90;99.90;;;;;;5028328;28;20521;-85
2020/12/06 12:20:00;;;;;;;30.77;15.20;;;5.90;99.90;;;;;;4973089;28;20430;-85
2020/12/06 15:55:10;;;;;;;28.63;14.17;;;5.40;99.90;;;;;;4973859;28;20990;-79
2020/12/06 15:57:38;;;;;;;27.17;13.53;;;5.50;99.90;;;;;;4983770;28;20488;-78
2020/12/06 16:00:05;;;;;;;29.77;15.87;;;5.50;99.90;;;;;;4996245;28;20636;-76
2020/12/06 16:02:30;;;;;;;23.97;14.37;;;5.60;99.90;;;;;;4989526;28;20978;-79
2020/12/06 16:04:58;;;;;;;24.23;15.20;;;5.70;99.90;;;;;;4980012;28;20448;-80
2020/12/06 16:07:26;;;;;;;27.50;15.20;;;5.70;99.90;;;;;;4968355;28;20638;-77
2020/12/06 16:09:54;;;;;;;30.27;15.77;;;5.90;99.90;;;;;;4990482;28;20605;-78
2020/12/06 16:12:20;;;;;;;27.87;15.83;;;5.90;99.90;;;;;;4990814;28;20495;-77
2020/12/06 16:14:48;;;;;;;24.07;13.97;;;5.90;99.90;;;;;;4969429;28;20441;-78
2020/12/06 16:17:20;;;;;;;27.53;14.70;;;6.00;99.90;;;;;;4984736;28;20190;-85
2020/12/06 16:19:46;;;;;;;28.30;14.93;;;6.00;99.90;;;;;;4985544;28;20937;-85
2020/12/06 16:22:13;;;;;;;29.13;15.20;;;5.90;99.90;;;;;;5000326;28;20782;-85
2020/12/06 16:24:45;;;;;;;26.67;14.93;;;5.90;99.90;;;;;;4998475;28;20438;-86
2020/12/06 16:27:16;;;;;;;25.70;15.30;;;5.90;99.90;;;;;;4981970;28;21022;-85
2020/12/06 16:29:43;;;;;;;25.90;16.63;;;5.90;99.90;;;;;;4971354;28;20963;-86
2020/12/06 16:32:09;;;;;;;32.30;14.97;;;5.90;99.90;;;;;;4989354;28;20477;-86
2020/12/06 16:34:35;;;;;;;30.73;15.70;;;5.80;99.90;;;;;;4993098;28;20511;-85
2020/12/06 16:37:02;;;;;;;21.27;14.13;;;5.80;99.90;;;;;;4985841;28;20193;-85
2020/12/06 16:39:27;;;;;;;26.07;14.37;;;5.80;99.90;;;;;;4971132;28;21275;-85
2020/12/06 16:41:57;;;;;;;33.77;16.10;;;5.80;99.90;;;;;;4978966;28;20189;-85
2020/12/06 16:44:23;;;;;;;29.23;17.03;;;5.80;99.90;;;;;;4985440;28;20703;-86
2020/12/06 16:46:49;;;;;;;26.47;16.33;;;5.70;99.90;;;;;;4985963;28;20429;-86
2020/12/06 16:49:54;;;;;;;22.47;15.90;;;5.70;99.90;;;;;;4983036;28;20429;-87
2020/12/06 19:10:32;;;;;;;39.03;19.37;;;5.60;99.90;;;;;;5182264;23;20971;-74
2020/12/06 19:13:03;;;;;;;33.07;17.80;;;5.60;99.90;;;;;;5001776;28;20484;-73
2020/12/06 19:15:31;;;;;;;41.33;21.47;;;5.80;99.90;;;;;;4998677;28;20472;-74
2020/12/06 19:17:58;;;;;;;36.23;19.07;;;6.30;99.90;;;;;;4992477;28;20440;-74
2020/12/06 19:20:24;;;;;;;37.37;19.50;;;6.50;99.90;;;;;;4995879;28;20444;-73
2020/12/06 19:22:53;;;;;;;33.90;18.70;;;6.60;99.90;;;;;;4995475;28;20649;-73
2020/12/06 19:25:21;;;;;;;30.60;18.53;;;6.70;99.90;;;;;;5002768;28;20197;-74
2020/12/06 23:24:11;;;;;;;39.00;18.50;;;4.70;99.90;;;;;;6166193;22;20411;31
2020/12/06 23:30:13;;;;;;;28.07;17.33;;;4.80;99.90;;;;;;4971376;28;20958;-77
2020/12/06 23:32:39;;;;;;;33.10;15.20;;;4.90;99.90;;;;;;4965519;28;20471;-80
2020/12/06 23:42:31;;;;;;;;;;;;;;;;;;;;;
2020/12/06 23:48:46;;;;;;;30.83;16.43;;;4.70;99.90;;;;;;4941286;29;20430;-83
2020/12/06 23:51:28;;;;;;;26.93;17.10;;;4.60;99.90;;;;;;4970565;28;20425;-85
2020/12/06 23:58:11;;;;;;;27.27;15.50;;;4.60;99.90;;;;;;4888899;29;20452;-84
